Terminal Aerodrome Forecast
Issued by NWS

Home | Current Version | Previous Version | Text Only | Print | Product List | Glossary Off
Versions: 1 2 3 4 5 6 7 8 9 10 11 12 13 14 15 16 17 18 19 20 21

000
FTUS43 KMPX 151522 AAB
TAFAXN
TAF AMD
KAXN 151522Z 1515/1612 29010KT P6SM FEW007 SCT080
     FM151600 28012KT P6SM BKN080 OVC250
     FM152300 28008KT P6SM SCT150=

USA.gov is the U.S. government's official web portal to all federal, state and local government web resources and services.